Terminal Aerodrome Forecast
Issued by NWS Rapid City, SD

Home | Current Version | Previous Version | Text Only | Print | Product List | Glossary On
Versions: 1 2 3 4 5 6 7 8 9 10 11 12 13 14 15 16 17 18 19 20 21 22 23 24
000
FTUS43 KUNR 141722
TAFRAP
TAF
KRAP 141722Z 1418/1518 13011KT P6SM BKN200
     FM150000 12014KT P6SM BKN090
      TEMPO 1500/1503 TSRA OVC040CB
     FM150300 06010KT P6SM BKN100
     FM150900 10008KT P6SM -SHRA BKN060
     FM151200 03004KT P6SM BKN060=

USA.gov is the U.S. government's official web portal to all federal, state and local government web resources and services.